Caribbean Princess — ZCDG8 — position and weather

sailwx.info

Track history (hours):
 
Tides and Currents Weather Stations Pressure Air Temp Water Temp Dewpoint Dewpoint Depression Visibility Wind Speed Wind Dir Waves Ship Positions

Caribbean Princess

Operator: Princess Cruises

Last reported at 2016-Jul-30 20:33 UTC. Time now 2016-Jul-30 20:41 UTC.
Position N 49°44' W 000°28'.

Type: Passenger vessel. MMSI: 310423000.

Date/timePositionNaut miles runAvg speedWind from/ knotsBaromVisibWave heightAir tempDewpointWater temp
2016-Jul-30 20:33N 49°44' W 000°28'1312.6
2016-Jul-30 19:33N 49°34' W 000°16'1212.4
2016-Jul-30 18:33N 49°30' E 000°02'3 3.1
2016-Jul-30 17:32N 49°29' E 000°06'0 0.0
2016-Jul-30 16:32N 49°29' E 000°06'0 0.0
2016-Jul-30 15:32N 49°29' E 000°06'0 0.0
2016-Jul-30 14:32N 49°29' E 000°06'0 0.0
2016-Jul-30 13:32N 49°29' E 000°06'0 0.0
2016-Jul-30 12:31N 49°29' E 000°06'0 0.0
2016-Jul-30 11:31N 49°29' E 000°06'0 0.0
2016-Jul-30 10:31N 49°29' E 000°06'0 0.0
2016-Jul-30 09:33N 49°29' E 000°06'0 0.0
2016-Jul-30 08:31N 49°29' E 000°06'0 0.0
2016-Jul-30 07:32N 49°29' E 000°06'0 0.0
2016-Jul-30 06:31N 49°29' E 000°06'0 0.0
2016-Jul-30 05:33N 49°29' E 000°06'1 0.5
2016-Jul-30 04:34N 49°29' E 000°07'10 9.6
2016-Jul-30 03:33N 49°32' W 000°07'1111.4
2016-Jul-30 02:33N 49°38' W 000°21'1413.9
2016-Jul-30 01:34N 49°52' W 000°20'1220.7
2016-Jul-30 01:00N 50°00' W 000°06'512.1 220 / 211013.910.8 2.515.9 17.0
2016-Jul-30 00:33N 50°05' W 000°09'1413.8
2016-Jul-29 23:33N 50°18' W 000°06'1212.1
2016-Jul-29 22:34N 50°30' W 000°00'1514.4
2016-Jul-29 21:31N 50°32' E 000°23'3316.4
2016-Jul-29 19:32N 50°49' E 001°07'1515.2
2016-Jul-29 18:34N 50°59' E 001°24'1616.0
2016-Jul-29 17:33N 51°11' E 001°42'814.6
2016-Jul-29 17:00N 51°18' E 001°48'919.9 210 / 411011.110.8 2.515.513.218.0
2016-Jul-29 16:34N 51°26' E 001°53'1818.3
2016-Jul-29 15:34N 51°41' E 002°10'1918.8
2016-Jul-29 14:33N 51°60' E 002°14'6816.5
2016-Jul-29 10:24N 53°08' E 002°19'9917.0
2016-Jul-29 04:34N 54°30' E 000°44'1017.8
2016-Jul-29 04:00N 54°36' E 000°30'919.8 220 / 221007.510.8 1.015.513.218.0
2016-Jul-29 03:34N 54°44' E 000°23'1818.1
2016-Jul-29 02:34N 54°57' E 000°02'1918.0
2016-Jul-29 01:29N 55°10' W 000°23'1718.2
2016-Jul-29 00:33N 55°24' W 000°41'1918.3
2016-Jul-28 23:32N 55°37' W 001°03'2 3.4
2016-Jul-28 23:00N 55°36' W 001°06'3524.4 140 / 141019.010.8 13.7 14.0
2016-Jul-28 21:34N 55°59' W 001°52'1817.6
2016-Jul-28 20:34N 56°06' W 002°22'1716.9
2016-Jul-28 19:34N 56°06' W 002°52'1514.8
2016-Jul-28 18:33N 56°02' W 003°17'3 3.0
2016-Jul-28 17:32N 56°00' W 003°22'0 0.0
2016-Jul-28 14:26N 56°00' W 003°22'0 0.0
2016-Jul-28 13:14N 56°00' W 003°22'0 0.0
2016-Jul-28 09:29N 56°00' W 003°22'0 0.0
2016-Jul-28 08:20N 56°00' W 003°22'0 0.0
2016-Jul-28 07:23N 56°00' W 003°22'0 0.0
2016-Jul-28 06:32N 56°00' W 003°22'1 1.1
2016-Jul-28 05:25N 56°01' W 003°21'1113.0
2016-Jul-28 04:33N 56°04' W 003°01'1818.2
2016-Jul-28 03:34N 56°10' W 002°30'1919.2
2016-Jul-28 02:34N 56°26' W 002°11'2748.4
2016-Jul-28 02:00N 56°48' W 001°42'920.7 230 / 241010.910.8 13.3
2016-Jul-28 01:33N 56°42' W 001°54'4017.6
2016-Jul-27 23:17N 57°21' W 001°36'1318.6
2016-Jul-27 22:34N 57°34' W 001°35'1817.8
2016-Jul-27 21:33N 57°47' W 001°59'43 2.0
2016-Jul-26 23:33N 58°25' W 002°39'1313.2
2016-Jul-26 22:33N 58°38' W 002°42'1111.3
2016-Jul-26 21:33N 58°43' W 003°02'1211.7
2016-Jul-26 20:33N 58°43' W 003°24'1312.8
2016-Jul-26 19:33N 58°43' W 003°49'1313.4
2016-Jul-26 18:33N 58°43' W 004°15'1313.3
2016-Jul-26 17:33N 58°43' W 004°40'4 7.0
2016-Jul-26 17:00N 58°42' W 004°48'5114.4 220 / 181011.510.8 1.013.510.616.0
2016-Jul-26 13:25N 58°03' W 005°51'12114.3
2016-Jul-26 05:00N 56°12' W 007°18'2014.1 230 / 211015.910.8 1.013.510.616.0
2016-Jul-26 03:33N 55°53' W 007°07'1413.7
2016-Jul-26 02:33N 55°41' W 006°55'1212.3
2016-Jul-26 01:33N 55°35' W 006°36'1212.0
2016-Jul-26 00:33N 55°27' W 006°20'1212.0
2016-Jul-25 23:33N 55°23' W 006°00'1211.8
2016-Jul-25 22:33N 55°14' W 005°46'1513.0
2016-Jul-25 21:26N 55°17' W 005°21'1313.9
2016-Jul-25 20:32N 55°22' W 005°01'1313.5
2016-Jul-25 19:33N 55°35' W 004°56'1513.4
2016-Jul-25 18:27N 55°50' W 004°57'1011.5
2016-Jul-25 17:33N 55°58' W 004°46'1 0.7
2016-Jul-25 16:33N 55°57' W 004°46'0 0.0
2016-Jul-25 15:33N 55°57' W 004°46'0 0.0
2016-Jul-25 14:33N 55°57' W 004°46'0 0.0
2016-Jul-25 13:33N 55°57' W 004°46'0 0.0
2016-Jul-25 12:33N 55°57' W 004°46'0 0.0
2016-Jul-25 11:33N 55°57' W 004°46'0 0.0
2016-Jul-25 10:27N 55°57' W 004°46'0 0.0
2016-Jul-25 09:33N 55°57' W 004°46'0 0.0
2016-Jul-25 08:33N 55°57' W 004°46'0 0.0
2016-Jul-25 07:33N 55°57' W 004°46'0 0.0
2016-Jul-25 06:33N 55°57' W 004°46'1 1.2
2016-Jul-25 05:33N 55°58' W 004°47'1313.0
2016-Jul-25 04:33N 55°46' W 004°58'1212.4
2016-Jul-25 03:33N 55°34' W 004°57'1312.2
2016-Jul-25 02:30N 55°21' W 004°57'1111.2
2016-Jul-25 01:30N 55°19' W 005°17'1010.4
2016-Jul-25 00:32N 55°09' W 005°22'1110.9
2016-Jul-24 23:33N 54°60' W 005°30'1211.8
2016-Jul-24 22:33N 54°48' W 005°31'1111.2
2016-Jul-24 21:34N 54°42' W 005°47'6 1.1
2016-Jul-24 16:08N 54°37' W 005°54'0 0.0
2016-Jul-24 10:24N 54°37' W 005°54'1 1.1
2016-Jul-24 09:32N 54°38' W 005°53'8 8.7
2016-Jul-24 08:33N 54°43' W 005°42'1010.1
2016-Jul-24 07:33N 54°42' W 005°24'1111.3
2016-Jul-24 06:33N 54°33' W 005°12'1211.9
2016-Jul-24 05:33N 54°23' W 005°02'1119.8
2016-Jul-24 05:00N 54°12' W 005°06'2 4.3 1016.4 1.1 14.014.016.0
2016-Jul-24 04:33N 54°11' W 005°09'1110.9
2016-Jul-24 03:33N 54°00' W 005°10'4813.9
2016-Jul-24 00:05N 53°39' W 003°57'712.9
2016-Jul-23 23:31N 53°36' W 003°45'1211.9
2016-Jul-23 22:33N 53°33' W 003°27'1110.6
2016-Jul-23 21:33N 53°32' W 003°09'8 7.8
2016-Jul-23 20:33N 53°26' W 003°01'1 1.3
2016-Jul-23 19:31N 53°24' W 003°00'0 0.0
2016-Jul-23 18:31N 53°24' W 003°00'0 0.0
2016-Jul-23 17:31N 53°24' W 003°00'0 0.0
2016-Jul-23 16:31N 53°24' W 003°00'0 0.0
2016-Jul-23 15:28N 53°24' W 003°00'0 0.0
2016-Jul-23 14:22N 53°24' W 003°00'0 0.0
2016-Jul-23 13:31N 53°24' W 003°00'0 0.0
2016-Jul-23 12:31N 53°24' W 003°00'0 0.0
2016-Jul-23 11:25N 53°24' W 003°00'0 0.0
2016-Jul-23 10:31N 53°24' W 003°00'0 0.0
2016-Jul-23 09:31N 53°24' W 003°00'0 0.0
2016-Jul-23 08:28N 53°24' W 003°00'0 0.0
2016-Jul-23 07:31N 53°24' W 003°00'0 0.0
2016-Jul-23 06:31N 53°24' W 003°00'12 5.9
2016-Jul-23 04:33N 53°31' W 003°16'1414.4
2016-Jul-23 03:33N 53°31' W 003°40'1818.4
2016-Jul-23 02:33N 53°37' W 004°09'97 4.3
2016-Jul-22 04:00N 52°18' W 005°42'3810.2 140 / 231015.4 5.4 0.515.014.116.0
2016-Jul-22 00:16N 51°57' W 006°33'811.6
2016-Jul-21 23:33N 51°54' W 006°46'1211.8
2016-Jul-21 22:33N 51°50' W 007°03'1211.8
2016-Jul-21 21:33N 51°46' W 007°21'1211.8
2016-Jul-21 20:33N 51°42' W 007°39'1111.5
2016-Jul-21 19:33N 51°42' W 007°58'1110.9
2016-Jul-21 18:33N 51°45' W 008°15'6 5.7
2016-Jul-21 17:33N 51°50' W 008°19'0 0.3
2016-Jul-21 16:32N 51°50' W 008°20'0 0.0
2016-Jul-21 15:32N 51°50' W 008°20'0 0.0
2016-Jul-21 14:32N 51°50' W 008°20'0 0.0
2016-Jul-21 13:31N 51°50' W 008°20'0 0.0
2016-Jul-21 12:31N 51°50' W 008°20'0 0.0
2016-Jul-21 11:31N 51°50' W 008°20'0 0.0
2016-Jul-21 10:31N 51°50' W 008°20'0 0.0
2016-Jul-21 09:28N 51°50' W 008°20'0 0.0
2016-Jul-21 08:33N 51°50' W 008°20'0 0.0
2016-Jul-21 07:33N 51°50' W 008°20'0 0.2
2016-Jul-21 06:34N 51°50' W 008°20'3 3.5
2016-Jul-21 05:33N 51°48' W 008°16'1312.8
2016-Jul-21 04:33N 51°37' W 008°05'1717.1
2016-Jul-21 03:33N 51°26' W 007°44'3814.7
2016-Jul-21 01:00N 51°00' W 007°00'5229.4 240 / 201014.610.8 1.518.016.516.0
2016-Jul-20 23:13N 50°24' W 006°00'1319.1
2016-Jul-20 22:33N 50°12' W 005°54'  
Track history (hours):
 
Tides and Currents Weather Stations Pressure Air Temp Water Temp Dewpoint Dewpoint Depression Visibility Wind Speed Wind Dir Waves Ship Positions

Caribbean Princess

Operator: Princess Cruises

Last reported at 2016-Jul-30 20:33 UTC. Time now 2016-Jul-30 20:41 UTC.
Position N 49°44' W 000°28'.

Type: Passenger vessel. MMSI: 310423000.

Date/timePositionNaut miles runAvg speedWind from/ knotsBaromVisibWave heightAir tempDewpointWater temp
2016-Jul-30 20:33N 49°44' W 000°28'1312.6
2016-Jul-30 19:33N 49°34' W 000°16'1212.4
2016-Jul-30 18:33N 49°30' E 000°02'3 3.1
2016-Jul-30 17:32N 49°29' E 000°06'0 0.0
2016-Jul-30 16:32N 49°29' E 000°06'0 0.0
2016-Jul-30 15:32N 49°29' E 000°06'0 0.0
2016-Jul-30 14:32N 49°29' E 000°06'0 0.0
2016-Jul-30 13:32N 49°29' E 000°06'0 0.0
2016-Jul-30 12:31N 49°29' E 000°06'0 0.0
2016-Jul-30 11:31N 49°29' E 000°06'0 0.0
2016-Jul-30 10:31N 49°29' E 000°06'0 0.0
2016-Jul-30 09:33N 49°29' E 000°06'0 0.0
2016-Jul-30 08:31N 49°29' E 000°06'0 0.0
2016-Jul-30 07:32N 49°29' E 000°06'0 0.0
2016-Jul-30 06:31N 49°29' E 000°06'0 0.0
2016-Jul-30 05:33N 49°29' E 000°06'1 0.5
2016-Jul-30 04:34N 49°29' E 000°07'10 9.6
2016-Jul-30 03:33N 49°32' W 000°07'1111.4
2016-Jul-30 02:33N 49°38' W 000°21'1413.9
2016-Jul-30 01:34N 49°52' W 000°20'1220.7
2016-Jul-30 01:00N 50°00' W 000°06'512.1 220 / 211013.910.8 2.515.9 17.0
2016-Jul-30 00:33N 50°05' W 000°09'1413.8
2016-Jul-29 23:33N 50°18' W 000°06'1212.1
2016-Jul-29 22:34N 50°30' W 000°00'1514.4
2016-Jul-29 21:31N 50°32' E 000°23'3316.4
2016-Jul-29 19:32N 50°49' E 001°07'1515.2
2016-Jul-29 18:34N 50°59' E 001°24'1616.0
2016-Jul-29 17:33N 51°11' E 001°42'814.6
2016-Jul-29 17:00N 51°18' E 001°48'919.9 210 / 411011.110.8 2.515.513.218.0
2016-Jul-29 16:34N 51°26' E 001°53'1818.3
2016-Jul-29 15:34N 51°41' E 002°10'1918.8
2016-Jul-29 14:33N 51°60' E 002°14'6816.5
2016-Jul-29 10:24N 53°08' E 002°19'9917.0
2016-Jul-29 04:34N 54°30' E 000°44'1017.8
2016-Jul-29 04:00N 54°36' E 000°30'919.8 220 / 221007.510.8 1.015.513.218.0
2016-Jul-29 03:34N 54°44' E 000°23'1818.1
2016-Jul-29 02:34N 54°57' E 000°02'1918.0
2016-Jul-29 01:29N 55°10' W 000°23'1718.2
2016-Jul-29 00:33N 55°24' W 000°41'1918.3
2016-Jul-28 23:32N 55°37' W 001°03'2 3.4
2016-Jul-28 23:00N 55°36' W 001°06'3524.4 140 / 141019.010.8 13.7 14.0
2016-Jul-28 21:34N 55°59' W 001°52'1817.6
2016-Jul-28 20:34N 56°06' W 002°22'1716.9
2016-Jul-28 19:34N 56°06' W 002°52'1514.8
2016-Jul-28 18:33N 56°02' W 003°17'3 3.0
2016-Jul-28 17:32N 56°00' W 003°22'0 0.0
2016-Jul-28 14:26N 56°00' W 003°22'0 0.0
2016-Jul-28 13:14N 56°00' W 003°22'0 0.0
2016-Jul-28 09:29N 56°00' W 003°22'0 0.0
2016-Jul-28 08:20N 56°00' W 003°22'0 0.0
2016-Jul-28 07:23N 56°00' W 003°22'0 0.0
2016-Jul-28 06:32N 56°00' W 003°22'1 1.1
2016-Jul-28 05:25N 56°01' W 003°21'1113.0
2016-Jul-28 04:33N 56°04' W 003°01'1818.2
2016-Jul-28 03:34N 56°10' W 002°30'1919.2
2016-Jul-28 02:34N 56°26' W 002°11'2748.4
2016-Jul-28 02:00N 56°48' W 001°42'920.7 230 / 241010.910.8 13.3
2016-Jul-28 01:33N 56°42' W 001°54'4017.6
2016-Jul-27 23:17N 57°21' W 001°36'1318.6
2016-Jul-27 22:34N 57°34' W 001°35'1817.8
2016-Jul-27 21:33N 57°47' W 001°59'43 2.0
2016-Jul-26 23:33N 58°25' W 002°39'1313.2
2016-Jul-26 22:33N 58°38' W 002°42'1111.3
2016-Jul-26 21:33N 58°43' W 003°02'1211.7
2016-Jul-26 20:33N 58°43' W 003°24'1312.8
2016-Jul-26 19:33N 58°43' W 003°49'1313.4
2016-Jul-26 18:33N 58°43' W 004°15'1313.3
2016-Jul-26 17:33N 58°43' W 004°40'4 7.0
2016-Jul-26 17:00N 58°42' W 004°48'5114.4 220 / 181011.510.8 1.013.510.616.0
2016-Jul-26 13:25N 58°03' W 005°51'12114.3
2016-Jul-26 05:00N 56°12' W 007°18'2014.1 230 / 211015.910.8 1.013.510.616.0
2016-Jul-26 03:33N 55°53' W 007°07'1413.7
2016-Jul-26 02:33N 55°41' W 006°55'1212.3
2016-Jul-26 01:33N 55°35' W 006°36'1212.0
2016-Jul-26 00:33N 55°27' W 006°20'1212.0
2016-Jul-25 23:33N 55°23' W 006°00'1211.8
2016-Jul-25 22:33N 55°14' W 005°46'1513.0
2016-Jul-25 21:26N 55°17' W 005°21'1313.9
2016-Jul-25 20:32N 55°22' W 005°01'1313.5
2016-Jul-25 19:33N 55°35' W 004°56'1513.4
2016-Jul-25 18:27N 55°50' W 004°57'1011.5
2016-Jul-25 17:33N 55°58' W 004°46'1 0.7
2016-Jul-25 16:33N 55°57' W 004°46'0 0.0
2016-Jul-25 15:33N 55°57' W 004°46'0 0.0
2016-Jul-25 14:33N 55°57' W 004°46'0 0.0
2016-Jul-25 13:33N 55°57' W 004°46'0 0.0
2016-Jul-25 12:33N 55°57' W 004°46'0 0.0
2016-Jul-25 11:33N 55°57' W 004°46'0 0.0
2016-Jul-25 10:27N 55°57' W 004°46'0 0.0
2016-Jul-25 09:33N 55°57' W 004°46'0 0.0
2016-Jul-25 08:33N 55°57' W 004°46'0 0.0
2016-Jul-25 07:33N 55°57' W 004°46'0 0.0
2016-Jul-25 06:33N 55°57' W 004°46'1 1.2
2016-Jul-25 05:33N 55°58' W 004°47'1313.0
2016-Jul-25 04:33N 55°46' W 004°58'1212.4
2016-Jul-25 03:33N 55°34' W 004°57'1312.2
2016-Jul-25 02:30N 55°21' W 004°57'1111.2
2016-Jul-25 01:30N 55°19' W 005°17'1010.4
2016-Jul-25 00:32N 55°09' W 005°22'1110.9
2016-Jul-24 23:33N 54°60' W 005°30'1211.8
2016-Jul-24 22:33N 54°48' W 005°31'1111.2
2016-Jul-24 21:34N 54°42' W 005°47'6 1.1
2016-Jul-24 16:08N 54°37' W 005°54'0 0.0
2016-Jul-24 10:24N 54°37' W 005°54'1 1.1
2016-Jul-24 09:32N 54°38' W 005°53'8 8.7
2016-Jul-24 08:33N 54°43' W 005°42'1010.1
2016-Jul-24 07:33N 54°42' W 005°24'1111.3
2016-Jul-24 06:33N 54°33' W 005°12'1211.9
2016-Jul-24 05:33N 54°23' W 005°02'1119.8
2016-Jul-24 05:00N 54°12' W 005°06'2 4.3 1016.4 1.1 14.014.016.0
2016-Jul-24 04:33N 54°11' W 005°09'1110.9
2016-Jul-24 03:33N 54°00' W 005°10'4813.9
2016-Jul-24 00:05N 53°39' W 003°57'712.9
2016-Jul-23 23:31N 53°36' W 003°45'1211.9
2016-Jul-23 22:33N 53°33' W 003°27'1110.6
2016-Jul-23 21:33N 53°32' W 003°09'8 7.8
2016-Jul-23 20:33N 53°26' W 003°01'1 1.3
2016-Jul-23 19:31N 53°24' W 003°00'0 0.0
2016-Jul-23 18:31N 53°24' W 003°00'0 0.0
2016-Jul-23 17:31N 53°24' W 003°00'0 0.0
2016-Jul-23 16:31N 53°24' W 003°00'0 0.0
2016-Jul-23 15:28N 53°24' W 003°00'0 0.0
2016-Jul-23 14:22N 53°24' W 003°00'0 0.0
2016-Jul-23 13:31N 53°24' W 003°00'0 0.0
2016-Jul-23 12:31N 53°24' W 003°00'0 0.0
2016-Jul-23 11:25N 53°24' W 003°00'0 0.0
2016-Jul-23 10:31N 53°24' W 003°00'0 0.0
2016-Jul-23 09:31N 53°24' W 003°00'0 0.0
2016-Jul-23 08:28N 53°24' W 003°00'0 0.0
2016-Jul-23 07:31N 53°24' W 003°00'0 0.0
2016-Jul-23 06:31N 53°24' W 003°00'12 5.9
2016-Jul-23 04:33N 53°31' W 003°16'1414.4
2016-Jul-23 03:33N 53°31' W 003°40'1818.4
2016-Jul-23 02:33N 53°37' W 004°09'97 4.3
2016-Jul-22 04:00N 52°18' W 005°42'3810.2 140 / 231015.4 5.4 0.515.014.116.0
2016-Jul-22 00:16N 51°57' W 006°33'811.6
2016-Jul-21 23:33N 51°54' W 006°46'1211.8
2016-Jul-21 22:33N 51°50' W 007°03'1211.8
2016-Jul-21 21:33N 51°46' W 007°21'1211.8
2016-Jul-21 20:33N 51°42' W 007°39'1111.5
2016-Jul-21 19:33N 51°42' W 007°58'1110.9
2016-Jul-21 18:33N 51°45' W 008°15'6 5.7
2016-Jul-21 17:33N 51°50' W 008°19'0 0.3
2016-Jul-21 16:32N 51°50' W 008°20'0 0.0
2016-Jul-21 15:32N 51°50' W 008°20'0 0.0
2016-Jul-21 14:32N 51°50' W 008°20'0 0.0
2016-Jul-21 13:31N 51°50' W 008°20'0 0.0
2016-Jul-21 12:31N 51°50' W 008°20'0 0.0
2016-Jul-21 11:31N 51°50' W 008°20'0 0.0
2016-Jul-21 10:31N 51°50' W 008°20'0 0.0
2016-Jul-21 09:28N 51°50' W 008°20'0 0.0
2016-Jul-21 08:33N 51°50' W 008°20'0 0.0
2016-Jul-21 07:33N 51°50' W 008°20'0 0.2
2016-Jul-21 06:34N 51°50' W 008°20'3 3.5
2016-Jul-21 05:33N 51°48' W 008°16'1312.8
2016-Jul-21 04:33N 51°37' W 008°05'1717.1
2016-Jul-21 03:33N 51°26' W 007°44'3814.7
2016-Jul-21 01:00N 51°00' W 007°00'5229.4 240 / 201014.610.8 1.518.016.516.0
2016-Jul-20 23:13N 50°24' W 006°00'1319.1
2016-Jul-20 22:33N 50°12' W 005°54'  

Dump ship's entire track history